Time;durP1;ratioP1;P1;durP2;ratioP2;P2;SDS_P1;SDS_P2;PMS_P1;PMS_P2;Temp;Humidity;BMP_temperature;BMP_pressure;BME280_temperature;BME280_humidity;BME280_pressure;Samples;Min_cycle;Max_cycle;Signal;HPM_P1;HPM_P2
2022/09/02 00:03:53;;;;;;;17.77;4.93;;;;;;;23.46;57.68;99536.44;10298033;28;20403;-71
2022/09/02 00:08:55;;;;;;;24.90;5.95;;;;;;;23.16;57.72;99511.00;10296256;28;20034;-71
2022/09/02 00:13:57;;;;;;;50.80;13.70;;;;;;;23.12;58.32;99550.53;10296592;28;20056;-71
2022/09/02 00:18:59;;;;;;;37.65;14.20;;;;;;;23.07;58.96;99560.56;10297262;28;20050;-71
2022/09/02 00:24:02;;;;;;;31.15;10.98;;;;;;;22.91;59.19;99549.66;10296171;28;20038;-71
2022/09/02 00:29:04;;;;;;;34.25;8.90;;;;;;;22.51;59.09;99491.66;10296492;28;20059;-71
2022/09/02 00:34:05;;;;;;;28.95;6.43;;;;;;;22.80;59.28;99561.56;10295822;28;20141;-73
2022/09/02 00:39:07;;;;;;;24.30;5.72;;;;;;;22.66;59.93;99577.50;10296167;28;20093;-73
2022/09/02 00:44:13;;;;;;;17.60;4.30;;;;;;;22.46;61.08;99582.84;10295025;28;20039;-71
2022/09/02 00:49:23;;;;;;;27.08;4.93;;;;;;;22.07;61.56;99524.47;10295156;28;20447;-72
2022/09/02 00:54:26;;;;;;;16.85;4.03;;;;;;;22.40;61.03;99608.25;10295630;28;20046;-72
2022/09/02 00:59:37;;;;;;;25.30;3.80;;;;;;;22.36;61.91;99612.56;10295602;28;20078;-72
2022/09/02 01:04:38;;;;;;;14.98;3.72;;;;;;;22.07;60.81;99589.38;10294683;28;20045;-73
2022/09/02 01:09:39;;;;;;;17.73;4.38;;;;;;;22.04;60.94;99610.75;10294282;28;20141;-73
2022/09/02 01:14:41;;;;;;;25.77;6.13;;;;;;;22.15;60.36;99635.97;10294853;28;20435;-72
2022/09/02 01:19:46;;;;;;;43.17;21.20;;;;;;;22.20;59.56;99653.09;10294659;28;20043;-71
2022/09/02 01:24:48;;;;;;;88.95;25.77;;;;;;;22.11;59.58;99643.81;10293881;28;20089;-72
2022/09/02 01:29:58;;;;;;;55.92;16.35;;;;;;;22.09;59.32;99649.47;10294246;28;20062;-72
2022/09/02 01:34:58;;;;;;;409.50;30.65;;;;;;;22.00;58.84;99644.81;10292899;28;20075;-72
2022/09/02 01:40:00;;;;;;;116.20;15.77;;;;;;;21.98;58.81;99650.47;10292125;28;20053;-72
2022/09/02 01:45:01;;;;;;;93.13;12.77;;;;;;;21.55;59.29;99594.75;10293663;28;20047;-71
2022/09/02 01:50:03;;;;;;;74.10;10.00;;;;;;;21.96;59.26;99668.84;10293474;28;20038;-71
2022/09/02 01:55:05;;;;;;;29.63;5.70;;;;;;;21.74;59.86;99660.81;10293415;28;20184;-71
2022/09/02 02:00:08;;;;;;;74.93;8.35;;;;;;;21.68;60.40;99679.97;10293712;28;20047;-71
2022/09/02 02:05:09;;;;;;;35.37;5.70;;;;;;;21.59;60.12;99677.72;10291435;28;20075;-71
2022/09/02 02:10:13;;;;;;;20.05;5.03;;;;;;;21.30;60.33;99660.97;10292182;28;20046;-71
2022/09/02 02:15:15;;;;;;;;;;;;;;;21.77;59.21;99708.16;10292023;28;20035;-70
2022/09/02 02:20:18;;;;;;;83.43;24.33;;;;;;;21.61;59.73;99720.72;10291337;28;19914;-72
2022/09/02 02:25:19;;;;;;;181.27;31.70;;;;;;;21.49;60.40;99695.75;10292799;28;20125;-72
2022/09/02 02:30:20;;;;;;;170.45;26.50;;;;;;;21.60;60.73;99714.50;10291906;28;20581;-72
2022/09/02 02:35:20;;;;;;;77.68;14.10;;;;;;;21.50;60.82;99705.47;10292134;28;20141;-72
2022/09/02 02:40:23;;;;;;;238.77;24.08;;;;;;;21.35;60.85;99685.31;10292356;28;20129;-72
2022/09/02 02:45:25;;;;;;;433.35;33.78;;;;;;;21.69;61.20;99736.50;10291380;28;20074;-72
2022/09/02 02:50:26;;;;;;;44.28;7.28;;;;;;;21.72;60.13;99714.34;10292111;28;20074;-72
2022/09/02 02:55:26;;;;;;;98.40;10.30;;;;;;;21.76;59.40;99691.13;10291562;28;20074;-72
2022/09/02 03:00:30;;;;;;;37.28;6.80;;;;;;;22.10;58.97;99756.56;10291525;28;20521;-72
2022/09/02 03:05:32;;;;;;;;;;;;;;;22.45;57.85;99785.00;10291630;28;20046;-70
2022/09/02 03:10:33;;;;;;;48.83;9.98;;;;;;;22.39;58.25;99802.28;10291634;28;20370;-72
2022/09/02 03:15:36;;;;;;;132.50;58.22;;;;;;;22.34;58.17;99799.53;10290572;28;20059;-73
2022/09/02 03:20:39;;;;;;;63.25;25.48;;;;;;;22.66;56.77;99848.22;10291049;28;20049;-74
2022/09/02 03:25:42;;;;;;;26.55;7.95;;;;;;;22.81;55.11;99841.28;10292437;28;20042;-73
2022/09/02 03:30:45;;;;;;;16.80;5.38;;;;;;;22.92;54.80;99841.09;10299387;28;20411;-73
2022/09/02 03:35:46;;;;;;;35.75;5.70;;;;;;;23.13;55.09;99833.94;10298031;28;20094;-73
2022/09/02 03:40:46;;;;;;;28.38;5.93;;;;;;;23.14;55.52;99800.34;10298213;28;20197;-73
2022/09/02 03:45:47;;;;;;;24.10;6.18;;;;;;;23.69;55.91;99849.59;10297587;28;20043;-74
2022/09/02 03:50:48;;;;;;;23.48;5.90;;;;;;;23.78;55.90;99828.22;10295968;28;20039;-75
2022/09/02 03:55:49;;;;;;;33.65;5.57;;;;;;;24.22;56.06;99868.47;10298023;28;20503;-72
2022/09/02 04:00:52;;;;;;;26.88;5.60;;;;;;;24.47;56.44;99867.69;10297074;28;20050;-74
2022/09/02 04:05:53;;;;;;;33.67;6.00;;;;;;;25.21;55.32;99875.22;10297413;28;20034;-73
2022/09/02 04:10:55;;;;;;;31.33;6.38;;;;;;;26.08;53.75;99846.81;10297374;28;20388;-75
2022/09/02 04:15:57;;;;;;;15.05;4.63;;;;;;;26.80;52.14;99811.63;10297123;28;20503;-73
2022/09/02 04:20:59;;;;;;;27.80;5.80;;;;;;;28.02;50.68;99844.75;10297920;28;20043;-73
2022/09/02 04:26:05;;;;;;;22.40;4.95;;;;;;;28.13;49.08;99815.41;10275090;28;20039;-73
2022/09/02 04:31:09;;;;;;;20.77;4.97;;;;;;;28.32;49.39;99859.06;10295944;28;20067;-75
2022/09/02 04:36:13;;;;;;;12.35;4.28;;;;;;;28.44;48.55;99859.44;10294365;28;20039;-73
2022/09/02 04:41:17;;;;;;;17.80;5.45;;;;;;;28.60;47.82;99869.00;10294176;28;20047;-73
2022/09/02 04:46:18;;;;;;;171.93;14.57;;;;;;;28.41;48.16;99808.13;10296364;28;20057;-71
2022/09/02 04:51:21;;;;;;;17.70;5.15;;;;;;;28.91;46.86;99882.13;10295769;28;20047;-75
2022/09/02 04:56:25;;;;;;;16.38;4.85;;;;;;;28.46;47.95;99862.69;10295074;28;20069;-73
2022/09/02 05:01:30;;;;;;;26.50;5.25;;;;;;;28.42;48.16;99865.19;10294971;28;20081;-73
2022/09/02 05:06:32;;;;;;;21.67;5.78;;;;;;;28.47;48.03;99867.03;10294757;28;20062;-73
2022/09/02 05:11:33;;;;;;;18.63;5.47;;;;;;;28.39;47.94;99875.84;10295908;28;20502;-73
2022/09/02 05:16:37;;;;;;;11.95;4.78;;;;;;;28.23;48.42;99878.03;10294831;28;20046;-73
2022/09/02 05:21:40;;;;;;;23.17;5.28;;;;;;;28.48;47.74;99898.72;10293983;28;20042;-74
2022/09/02 05:26:41;;;;;;;18.92;5.15;;;;;;;28.61;47.25;99883.47;10294115;28;20045;-73
2022/09/02 05:31:42;;;;;;;19.92;4.78;;;;;;;28.07;47.61;99841.16;10294689;28;20059;-74
2022/09/02 05:36:43;;;;;;;12.82;4.97;;;;;;;28.33;47.75;99894.28;10294602;28;20052;-74
2022/09/02 05:41:44;;;;;;;20.75;5.63;;;;;;;28.52;47.87;99918.06;10293919;28;20038;-74
2022/09/02 05:46:45;;;;;;;15.00;4.70;;;;;;;28.72;47.27;99901.31;10293142;28;20050;-76
2022/09/02 05:51:54;;;;;;;31.75;5.47;;;;;;;29.32;46.02;99933.38;10292683;28;20550;-75
2022/09/02 05:57:02;;;;;;;18.13;4.25;;;;;;;29.66;45.56;99965.03;10292310;28;20459;-74
2022/09/02 06:02:02;;;;;;;14.80;4.50;;;;;;;29.95;45.26;99987.41;10293458;28;20039;-75
2022/09/02 06:07:03;;;;;;;17.17;4.90;;;;;;;30.15;44.92;100005.31;10292986;28;20042;-75
2022/09/02 06:12:04;;;;;;;25.77;5.10;;;;;;;30.15;44.20;100020.94;10292650;28;20046;-76
2022/09/02 06:17:05;;;;;;;15.50;4.38;;;;;;;30.13;43.94;100032.22;10293233;28;20498;-74
2022/09/02 06:22:06;;;;;;;13.80;4.43;;;;;;;29.29;43.46;99899.22;10292226;28;20069;-74
2022/09/02 06:27:07;;;;;;;15.55;4.20;;;;;;;30.47;43.02;100042.75;10292424;28;20038;-75
2022/09/02 06:32:08;;;;;;;10.82;3.85;;;;;;;30.64;42.97;100033.06;10292604;28;20197;-75
2022/09/02 06:37:09;;;;;;;16.75;4.30;;;;;;;31.00;42.25;100043.22;10291565;28;20038;-74
2022/09/02 06:42:09;;;;;;;21.42;4.82;;;;;;;31.21;41.57;100024.31;10291599;28;20182;-77
2022/09/02 06:47:10;;;;;;;23.00;5.60;;;;;;;30.88;42.21;100044.59;10291259;28;20069;-74
2022/09/02 06:52:12;;;;;;;26.98;5.43;;;;;;;30.64;42.88;100025.66;10291699;28;20403;-74
2022/09/02 06:57:13;;;;;;;14.53;4.07;;;;;;;30.71;42.66;100036.19;10291681;28;20291;-75
2022/09/02 07:02:14;;;;;;;21.98;4.93;;;;;;;30.37;43.00;100033.94;10295630;28;20049;-74
2022/09/02 07:07:15;;;;;;;11.23;3.88;;;;;;;30.16;42.46;99984.25;10300592;28;20055;-75
2022/09/02 07:12:18;;;;;;;9.85;3.88;;;;;;;30.87;42.09;100044.88;10299346;28;20658;-75
2022/09/02 07:17:21;;;;;;;20.25;4.47;;;;;;;30.69;41.59;99964.38;10298866;28;20035;-74
2022/09/02 07:22:22;;;;;;;47.65;6.60;;;;;;;31.31;42.08;100005.63;10299129;28;20043;-74
2022/09/02 07:27:23;;;;;;;16.15;4.55;;;;;;;31.46;40.76;100020.91;10298705;28;20042;-76
2022/09/02 07:32:23;;;;;;;10.40;3.83;;;;;;;31.60;40.65;100029.06;10296855;28;20065;-79
2022/09/02 07:37:24;;;;;;;30.00;4.65;;;;;;;31.80;40.38;100017.50;10298083;28;20066;-73
2022/09/02 07:42:25;;;;;;;17.40;4.13;;;;;;;31.63;40.34;99951.53;10298449;28;20050;-74
2022/09/02 07:47:26;;;;;;;18.77;4.25;;;;;;;32.13;39.89;99986.94;10297883;28;20144;-73
2022/09/02 07:52:27;;;;;;;14.73;4.38;;;;;;;32.25;39.16;100003.59;10296323;28;20051;-72
2022/09/02 07:57:28;;;;;;;17.30;3.90;;;;;;;32.49;39.12;100003.16;10297961;28;20046;-74
2022/09/02 08:02:29;;;;;;;17.33;4.38;;;;;;;32.25;38.39;99959.63;10297696;28;20049;-75
2022/09/02 08:07:29;;;;;;;21.75;4.07;;;;;;;32.62;37.63;99946.38;10297048;28;20092;-72
2022/09/02 08:12:30;;;;;;;17.25;4.13;;;;;;;32.87;36.87;99950.19;10298300;28;20486;-75
2022/09/02 08:17:31;;;;;;;24.10;4.63;;;;;;;33.41;36.21;100010.31;10296506;28;20125;-74
2022/09/02 08:22:34;;;;;;;18.50;4.55;;;;;;;33.59;35.44;99995.34;10296359;28;20473;-75
2022/09/02 08:27:36;;;;;;;18.40;3.80;;;;;;;33.79;34.93;99996.56;10296295;28;20045;-74
2022/09/02 08:32:38;;;;;;;;;;;;;;;34.27;35.08;100000.03;10297715;28;20058;-75
2022/09/02 08:37:39;;;;;;;28.42;4.90;;;;;;;34.01;34.88;99970.66;10295843;28;19922;-76
2022/09/02 08:42:46;;;;;;;16.45;4.00;;;;;;;34.09;34.42;99996.59;10295695;28;20034;-76
2022/09/02 08:47:55;;;;;;;34.33;5.00;;;;;;;34.35;34.02;99990.88;10295532;28;20427;-76
2022/09/02 08:53:00;;;;;;;14.45;4.22;;;;;;;34.51;33.52;99994.63;10295279;28;20121;-75
2022/09/02 08:58:01;;;;;;;17.15;4.05;;;;;;;34.57;33.73;99992.50;10295820;28;20079;-75
2022/09/02 09:03:35;;;;;;;16.27;4.43;;;;;;;34.30;33.64;99927.66;10295250;28;20129;-74
2022/09/02 09:08:47;;;;;;;13.38;4.20;;;;;;;34.45;33.04;99927.03;10294238;28;20150;-76
2022/09/02 09:13:53;;;;;;;35.28;5.20;;;;;;;34.72;32.22;99913.84;10295196;28;20042;-74
2022/09/02 09:19:12;;;;;;;13.55;3.83;;;;;;;35.22;32.26;99979.06;10294649;28;20578;-76
2022/09/02 09:24:44;;;;;;;11.02;3.78;;;;;;;35.70;31.18;99993.31;10293894;28;20042;-76
2022/09/02 09:29:45;;;;;;;15.13;4.30;;;;;;;35.53;31.36;99966.66;10294329;28;20058;-74
2022/09/02 09:34:51;;;;;;;26.35;4.65;;;;;;;35.47;29.78;99913.59;10294533;28;20050;-75
2022/09/02 09:39:52;;;;;;;15.32;4.85;;;;;;;35.96;29.61;99973.56;10294184;28;20049;-74
2022/09/02 09:44:53;;;;;;;24.10;4.13;;;;;;;36.07;29.39;99964.47;10293813;28;20042;-74
2022/09/02 09:50:11;;;;;;;23.02;4.43;;;;;;;36.36;28.43;99951.50;10293005;28;20053;-76
2022/09/02 09:55:18;;;;;;;32.25;4.97;;;;;;;36.37;29.16;99963.38;10293438;28;20126;-75
2022/09/02 10:00:32;;;;;;;8.18;3.55;;;;;;;35.67;29.49;99914.66;10292962;28;20038;-75
2022/09/02 10:05:32;;;;;;;34.72;5.22;;;;;;;35.65;30.03;99981.31;10293207;28;20130;-75
2022/09/02 10:10:34;;;;;;;10.70;3.55;;;;;;;35.38;29.64;100006.81;10293041;28;20125;-77
2022/09/02 10:15:43;;;;;;;16.30;4.32;;;;;;;35.72;29.41;100005.63;10293497;28;20442;-76
2022/09/02 10:21:00;;;;;;;7.35;3.58;;;;;;;35.96;29.18;100009.50;10292543;28;20118;-76
2022/09/02 10:26:19;;;;;;;14.10;4.28;;;;;;;36.32;29.24;99997.63;10291883;28;20043;-76
2022/09/02 10:31:43;;;;;;;13.43;4.38;;;;;;;36.43;29.09;99997.91;10292534;28;20149;-74
2022/09/02 10:36:47;;;;;;;42.13;6.25;;;;;;;36.04;29.80;99997.53;10291700;28;20092;-75
2022/09/02 10:41:49;;;;;;;31.08;6.20;;;;;;;35.79;30.02;99988.47;10291365;28;20073;-75
2022/09/02 10:47:19;;;;;;;13.48;4.60;;;;;;;35.76;29.56;100001.00;10291912;28;20052;-76
2022/09/02 10:52:33;;;;;;;15.68;4.40;;;;;;;35.52;29.93;99993.50;10291652;28;20101;-76
2022/09/02 10:57:51;;;;;;;19.08;3.92;;;;;;;35.73;28.66;99959.44;10291069;28;20468;-75
2022/09/02 11:03:16;;;;;;;32.05;5.13;;;;;;;36.50;28.50;100003.69;10289857;28;20069;-78
2022/09/02 11:08:24;;;;;;;27.20;4.38;;;;;;;35.88;28.79;99931.91;10291841;28;20097;-74
2022/09/02 11:13:52;;;;;;;24.08;4.20;;;;;;;36.37;28.37;99997.34;10290672;28;20090;-73
2022/09/02 11:19:41;;;;;;;18.75;5.05;;;;;;;36.44;28.37;100003.13;10291713;28;20403;-75
2022/09/02 11:24:42;;;;;;;9.90;4.07;;;;;;;35.60;28.65;99864.69;10286992;28;20133;-75
2022/09/02 11:30:00;;;;;;;17.73;4.57;;;;;;;35.94;28.67;99937.19;10290936;28;20538;-73
2022/09/02 11:35:09;;;;;;;12.25;4.57;;;;;;;36.06;28.62;99975.91;10291103;28;20050;-75
2022/09/02 11:40:25;;;;;;;18.83;4.78;;;;;;;36.05;28.84;99974.28;10290279;28;20074;-74
2022/09/02 11:45:55;;;;;;;14.48;4.93;;;;;;;36.13;29.20;99981.63;10290831;28;20051;-75
2022/09/02 11:51:15;;;;;;;28.10;5.50;;;;;;;35.64;29.50;99987.19;10293050;28;20058;-73
2022/09/02 11:56:20;;;;;;;15.27;4.65;;;;;;;35.29;30.01;99970.22;10298181;28;20030;-75
2022/09/02 12:01:27;;;;;;;23.48;5.10;;;;;;;34.62;30.49;99969.44;10297878;28;20039;-75
2022/09/02 12:06:28;;;;;;;12.10;4.82;;;;;;;34.41;30.79;100019.88;10297811;28;20046;-77
2022/09/02 12:11:36;;;;;;;29.40;5.80;;;;;;;33.97;31.88;99980.72;10297149;28;20046;-75
2022/09/02 12:16:59;;;;;;;17.42;4.82;;;;;;;33.70;31.88;100006.00;10297884;28;20053;-74
2022/09/02 12:22:15;;;;;;;18.52;5.70;;;;;;;33.98;31.83;100070.53;10296855;28;20041;-73
2022/09/02 12:27:36;;;;;;;27.20;5.20;;;;;;;34.34;31.69;100065.66;10296770;28;20042;-74
2022/09/02 12:32:47;;;;;;;11.17;4.33;;;;;;;34.00;31.45;100028.88;10297506;28;20066;-75
2022/09/02 12:38:20;;;;;;;13.73;4.03;;;;;;;34.22;31.76;100080.16;10296878;28;20050;-76
2022/09/02 12:43:31;;;;;;;13.27;5.18;;;;;;;33.09;32.08;99962.19;10293832;28;20442;-73
2022/09/02 12:49:00;;;;;;;19.75;5.13;;;;;;;33.52;32.56;100039.13;10295428;28;20047;-73
2022/09/02 12:54:01;;;;;;;20.17;4.82;;;;;;;33.32;32.85;100054.38;10277644;28;20094;-73
2022/09/02 12:59:03;;;;;;;17.60;5.13;;;;;;;33.17;33.87;100057.66;10294917;28;20046;-73
2022/09/02 13:04:25;;;;;;;20.95;4.72;;;;;;;32.57;34.28;99974.03;10295748;28;20126;-73
2022/09/02 13:09:28;;;;;;;;;;;;;;;32.97;34.12;100048.13;10292568;28;20046;-72
2022/09/02 13:14:44;;;;;;;27.88;5.95;;;;;;;32.69;34.87;100042.94;10294524;28;20308;-73
2022/09/02 13:19:56;;;;;;;19.13;5.60;;;;;;;32.86;34.48;100025.63;10280424;28;20510;-72
2022/09/02 13:25:10;;;;;;;20.70;5.53;;;;;;;32.58;34.27;99931.66;10275295;28;20074;-73
2022/09/02 13:30:25;;;;;;;20.45;5.43;;;;;;;32.87;33.99;99990.66;10273471;28;20145;-73
2022/09/02 13:35:27;;;;;;;19.02;7.28;;;;;;;33.02;33.97;100003.94;10289525;28;20038;-74
2022/09/02 13:40:35;;;;;;;17.70;5.72;;;;;;;33.36;33.21;100066.38;10276223;28;20050;-74
2022/09/02 13:45:36;;;;;;;16.27;5.75;;;;;;;33.47;33.45;100074.25;10280416;28;20465;-72
2022/09/02 13:50:43;;;;;;;14.93;5.50;;;;;;;33.49;33.34;100085.78;10275466;28;20050;-72
2022/09/02 13:55:53;;;;;;;20.98;5.28;;;;;;;32.97;33.23;100056.38;10289761;28;20479;-73
2022/09/02 14:00:56;;;;;;;14.05;4.72;;;;;;;33.31;33.52;100153.81;10280061;28;20070;-73
2022/09/02 14:05:58;;;;;;;20.60;4.68;;;;;;;33.13;34.04;100118.03;10277088;28;20043;-73
2022/09/02 14:11:01;;;;;;;49.22;6.50;;;;;;;32.97;34.12;100101.19;10279831;28;20419;-73
2022/09/02 14:16:24;;;;;;;22.73;5.97;;;;;;;33.09;33.85;100119.84;10270731;28;20514;-72
2022/09/02 14:21:25;;;;;;;26.23;6.07;;;;;;;32.57;34.50;100045.50;10269040;28;20053;-72
2022/09/02 14:26:47;;;;;;;18.17;5.18;;;;;;;32.61;34.24;100084.16;10270128;28;20521;-72
2022/09/02 14:32:02;;;;;;;;;;;;;;;32.62;34.10;100108.63;10268711;28;20499;-73
2022/09/02 14:37:22;;;;;;;12.48;4.57;;;;;;;32.16;34.78;100098.94;10273801;28;19974;-72
2022/09/02 14:42:23;;;;;;;19.88;4.57;;;;;;;31.94;35.34;100119.06;10272506;28;20039;-73
2022/09/02 14:47:24;;;;;;;18.30;4.38;;;;;;;31.68;35.13;100167.50;10280588;28;20035;-72
2022/09/02 14:52:28;;;;;;;19.48;5.47;;;;;;;31.76;35.46;100219.75;10275088;28;20510;-72
2022/09/02 14:57:37;;;;;;;35.30;6.00;;;;;;;31.67;35.76;100229.88;10291658;28;20074;-71
2022/09/02 15:02:41;;;;;;;11.73;4.80;;;;;;;31.22;36.12;100188.63;10290719;28;20133;-72
2022/09/02 15:07:44;;;;;;;20.42;4.53;;;;;;;31.46;36.45;100253.44;10291570;28;20503;-72
2022/09/02 15:12:58;;;;;;;59.13;7.03;;;;;;;31.36;37.24;100263.53;10290715;28;20093;-73
2022/09/02 15:18:01;;;;;;;28.45;4.90;;;;;;;31.09;37.10;100250.66;10289998;28;20046;-73
2022/09/02 15:23:02;;;;;;;22.17;4.72;;;;;;;30.81;36.98;100244.41;10295000;28;20065;-73
2022/09/02 15:28:02;;;;;;;18.35;4.68;;;;;;;30.68;37.14;100248.72;10298711;28;20150;-72
2022/09/02 15:33:05;;;;;;;31.42;5.75;;;;;;;30.09;37.76;100165.41;10298897;28;20043;-73
2022/09/02 15:38:06;;;;;;;;;;;;;;;30.56;37.15;100221.00;10297699;28;20084;-73
2022/09/02 15:43:07;;;;;;;28.05;4.97;;;;;;;30.27;38.19;100202.09;10299770;28;19918;-72
2022/09/02 15:48:08;;;;;;;27.17;11.32;;;;;;;30.21;37.73;100200.56;10297701;28;20058;-75
2022/09/02 15:53:08;;;;;;;62.22;13.20;;;;;;;30.13;37.93;100204.81;10296633;28;20046;-72
2022/09/02 15:58:10;;;;;;;32.33;10.43;;;;;;;30.09;37.88;100205.72;10292019;28;20529;-73
2022/09/02 16:03:11;;;;;;;18.92;6.97;;;;;;;29.80;37.88;100169.25;10296169;28;20039;-73
2022/09/02 16:08:11;;;;;;;22.02;5.57;;;;;;;29.46;38.34;100131.19;10296478;28;20046;-72
2022/09/02 16:13:12;;;;;;;15.90;4.95;;;;;;;29.64;38.22;100172.53;10295389;28;20499;-72
2022/09/02 16:18:13;;;;;;;12.43;4.60;;;;;;;29.62;38.61;100180.25;10296018;28;20046;-73
2022/09/02 16:23:14;;;;;;;26.67;4.80;;;;;;;29.60;38.67;100174.22;10296443;28;20123;-73
2022/09/02 16:28:15;;;;;;;19.30;5.60;;;;;;;29.46;38.83;100155.81;10296187;28;20062;-73
2022/09/02 16:33:16;;;;;;;12.88;6.97;;;;;;;29.61;38.95;100195.00;10278973;28;20523;-73
2022/09/02 16:38:17;;;;;;;23.35;6.85;;;;;;;29.46;39.46;100183.19;10276405;28;20038;-73
2022/09/02 16:43:20;;;;;;;15.85;8.20;;;;;;;29.32;39.74;100177.66;10271460;28;20082;-72
2022/09/02 16:48:21;;;;;;;;;;;;;;;29.46;39.65;100193.31;10276511;28;20034;-73
2022/09/02 16:53:22;;;;;;;25.83;10.57;;;;;;;29.20;40.09;100173.75;10271740;28;19966;-72
2022/09/02 16:58:23;;;;;;;22.15;10.00;;;;;;;29.20;40.18;100180.03;10277380;28;20067;-72
2022/09/02 17:03:24;;;;;;;10.43;6.72;;;;;;;29.02;40.83;100150.78;10270858;28;20034;-73
2022/09/02 17:08:25;;;;;;;22.55;7.53;;;;;;;28.85;40.59;100140.31;10276064;28;20391;-73
2022/09/02 17:13:25;;;;;;;16.60;5.63;;;;;;;28.97;40.60;100154.34;10275514;28;20039;-72
2022/09/02 17:18:26;;;;;;;22.15;5.35;;;;;;;28.93;40.41;100158.78;10282216;28;20492;-73
2022/09/02 17:23:27;;;;;;;12.57;4.72;;;;;;;28.51;40.60;100100.31;10281627;28;20394;-72
2022/09/02 17:28:28;;;;;;;12.48;4.70;;;;;;;28.76;40.89;100158.47;10282895;28;20158;-73
2022/09/02 17:33:29;;;;;;;30.27;4.80;;;;;;;28.71;40.84;100153.88;10263572;28;20122;-69
2022/09/02 17:38:30;;;;;;;23.33;4.97;;;;;;;28.53;41.21;100127.34;10250727;28;20507;-70
2022/09/02 17:43:31;;;;;;;11.25;4.05;;;;;;;28.64;41.49;100124.19;10256780;28;20094;-71
2022/09/02 17:48:32;;;;;;;15.32;4.10;;;;;;;28.77;41.39;100111.69;10291372;28;20391;-70
2022/09/02 17:53:32;;;;;;;8.68;4.35;;;;;;;28.44;41.65;100056.13;10293759;28;20104;-71
2022/09/02 17:58:49;;;;;;;18.45;4.65;;;;;;;28.87;41.96;100116.22;10293112;28;20039;-72
2022/09/02 18:03:50;;;;;;;11.13;4.03;;;;;;;28.41;41.79;100032.94;10292309;28;20042;-69
2022/09/02 18:08:55;;;;;;;18.25;4.88;;;;;;;28.84;42.35;100109.44;10291871;28;20034;-71
2022/09/02 18:14:10;;;;;;;14.98;4.75;;;;;;;28.86;42.45;100114.59;10292948;28;20057;-69
2022/09/02 18:19:36;;;;;;;10.60;4.40;;;;;;;28.86;42.35;100111.84;10292744;28;20047;-70
2022/09/02 18:25:15;;;;;;;13.98;5.03;;;;;;;28.86;42.57;100142.72;10292081;28;20039;-72
2022/09/02 18:30:23;;;;;;;13.40;4.47;;;;;;;28.30;43.01;100074.31;10292129;28;20471;-72
2022/09/02 18:35:38;;;;;;;34.95;5.55;;;;;;;28.15;43.21;100070.69;10290457;28;20169;-72
2022/09/02 18:40:51;;;;;;;7.40;4.60;;;;;;;28.51;43.06;100154.97;10291892;28;20055;-72
2022/09/02 18:45:55;;;;;;;15.95;4.43;;;;;;;28.49;43.30;100150.91;10291969;28;20050;-72
2022/09/02 18:51:05;;;;;;;7.68;4.10;;;;;;;28.43;43.67;100155.59;10291803;28;20105;-71
2022/09/02 18:56:08;;;;;;;11.27;4.45;;;;;;;28.14;43.66;100125.59;10290400;28;20042;-70
2022/09/02 19:01:23;;;;;;;10.05;4.05;;;;;;;28.28;44.36;100159.31;10291111;28;20050;-72
2022/09/02 19:06:32;;;;;;;11.55;4.97;;;;;;;28.17;44.34;100168.69;10291563;28;20042;-72
2022/09/02 19:11:36;;;;;;;13.27;4.95;;;;;;;27.99;44.50;100168.31;10290078;28;20051;-70
2022/09/02 19:16:37;;;;;;;9.25;4.20;;;;;;;27.93;44.70;100174.13;10286468;28;20106;-71
2022/09/02 19:21:53;;;;;;;10.75;4.35;;;;;;;27.92;44.94;100184.25;10287111;28;20494;-73
2022/09/02 19:27:16;;;;;;;14.05;4.45;;;;;;;27.90;45.70;100197.34;10291052;28;20049;-72
2022/09/02 19:32:24;;;;;;;11.82;4.72;;;;;;;27.65;46.20;100195.63;10291143;28;20515;-72
2022/09/02 19:37:25;;;;;;;12.20;4.80;;;;;;;27.37;46.52;100186.28;10290115;28;20120;-73
2022/09/02 19:42:27;;;;;;;18.48;4.78;;;;;;;27.32;46.48;100191.78;10290623;28;20120;-72
2022/09/02 19:47:33;;;;;;;14.20;4.78;;;;;;;27.23;46.99;100180.66;10290869;28;20038;-72
2022/09/02 19:52:43;;;;;;;10.98;5.03;;;;;;;26.73;47.59;100125.31;10290348;28;20050;-72
2022/09/02 19:57:44;;;;;;;14.60;4.32;;;;;;;26.99;47.08;100188.69;10291161;28;20078;-72
2022/09/02 20:02:45;;;;;;;13.32;5.80;;;;;;;26.94;47.21;100193.34;10290267;28;20124;-72
2022/09/02 20:07:46;;;;;;;12.70;4.93;;;;;;;26.60;48.19;100196.78;10291836;28;20074;-73
2022/09/02 20:12:47;;;;;;;40.05;7.45;;;;;;;26.52;49.08;100202.78;10297413;28;20051;-72
2022/09/02 20:17:48;;;;;;;73.88;10.27;;;;;;;26.26;49.78;100196.56;10298099;28;20035;-71
2022/09/02 20:22:56;;;;;;;33.03;12.75;;;;;;;26.08;51.13;100193.31;10296409;28;20046;-72
2022/09/02 20:28:24;;;;;;;34.88;10.73;;;;;;;25.72;52.66;100149.78;10297225;28;20042;-71
2022/09/02 20:33:33;;;;;;;52.63;7.85;;;;;;;25.70;52.61;100183.81;10296583;28;20046;-72
2022/09/02 20:38:53;;;;;;;24.13;5.75;;;;;;;25.84;53.15;100217.56;10294858;28;20128;-72
2022/09/02 20:44:15;;;;;;;13.90;4.95;;;;;;;26.05;52.32;100234.69;10295531;28;20407;-71
2022/09/02 20:49:58;;;;;;;23.97;5.43;;;;;;;26.27;50.54;100239.84;10295910;28;20049;-71
2022/09/02 20:55:12;;;;;;;26.70;5.28;;;;;;;26.45;49.98;100226.75;10255062;28;20562;-71
2022/09/02 21:00:18;;;;;;;17.70;5.15;;;;;;;26.35;49.66;100209.31;10255816;28;20049;-72
2022/09/02 21:05:25;;;;;;;32.47;5.75;;;;;;;26.44;49.89;100225.09;10272864;28;20070;-71
2022/09/02 21:10:51;;;;;;;21.05;5.00;;;;;;;26.49;49.46;100223.22;10295820;28;20077;-71
2022/09/02 21:15:55;;;;;;;14.57;4.57;;;;;;;26.49;49.05;100219.66;10295852;28;20042;-71
2022/09/02 21:21:09;;;;;;;22.23;5.20;;;;;;;26.56;49.06;100218.28;10293665;28;20208;-71
2022/09/02 21:26:18;;;;;;;20.58;5.50;;;;;;;26.56;48.81;100204.66;10294992;28;20097;-71
2022/09/02 21:31:41;;;;;;;16.45;4.95;;;;;;;26.53;48.77;100177.97;10293852;28;20063;-69
2022/09/02 21:36:42;;;;;;;15.27;4.70;;;;;;;26.13;48.59;100136.16;10294158;28;20069;-71
2022/09/02 21:42:01;;;;;;;21.88;5.00;;;;;;;26.52;48.88;100206.31;10293954;28;20049;-70
2022/09/02 21:47:14;;;;;;;15.77;4.85;;;;;;;26.48;48.68;100207.94;10294483;28;20050;-71
2022/09/02 21:52:28;;;;;;;14.03;4.53;;;;;;;26.61;49.06;100252.88;10293057;28;20038;-72
2022/09/02 21:57:55;;;;;;;14.52;4.68;;;;;;;26.58;49.02;100264.34;10293473;28;20114;-72
2022/09/02 22:03:06;;;;;;;17.33;4.93;;;;;;;26.50;49.39;100281.22;10293163;28;20074;-72
2022/09/02 22:08:42;;;;;;;13.57;4.40;;;;;;;26.05;49.13;100220.28;10293113;28;20520;-72
2022/09/02 22:13:44;;;;;;;15.40;4.85;;;;;;;26.36;49.31;100300.03;10292849;28;20047;-72
2022/09/02 22:19:07;;;;;;;13.48;4.70;;;;;;;25.89;50.33;100243.97;10292745;28;20152;-72
2022/09/02 22:24:08;;;;;;;15.48;4.75;;;;;;;25.91;50.96;100282.63;10292754;28;20047;-72
2022/09/02 22:29:24;;;;;;;23.25;4.90;;;;;;;25.90;52.11;100294.56;10291988;28;20133;-71
2022/09/02 22:34:29;;;;;;;15.30;4.82;;;;;;;25.64;52.04;100272.75;10291974;28;20101;-72
2022/09/02 22:39:44;;;;;;;17.00;5.20;;;;;;;25.38;52.63;100246.59;10292676;28;20051;-72
2022/09/02 22:56:07;;;;;;;18.23;4.65;;;;;;;25.34;52.05;100232.72;10291764;28;20046;-72
2022/09/02 23:01:19;;;;;;;15.95;4.95;;;;;;;25.35;52.07;100245.22;10291088;28;20471;-71
2022/09/02 23:06:28;;;;;;;14.55;4.43;;;;;;;24.84;52.43;100158.09;10291117;28;20578;-72
2022/09/02 23:11:47;;;;;;;23.35;5.60;;;;;;;25.25;52.42;100218.03;10290973;28;20049;-71
2022/09/02 23:17:07;;;;;;;22.20;4.78;;;;;;;24.75;52.84;100146.09;10291680;28;20047;-71
2022/09/02 23:22:23;;;;;;;45.00;6.75;;;;;;;25.07;52.77;100203.00;10291071;28;20039;-71
2022/09/02 23:27:33;;;;;;;28.13;5.78;;;;;;;24.91;53.01;100195.88;10291772;28;20046;-71
2022/09/02 23:32:42;;;;;;;38.65;6.90;;;;;;;24.77;53.13;100185.50;10292107;28;20066;-71
2022/09/02 23:38:07;;;;;;;50.60;7.72;;;;;;;24.73;53.43;100194.44;10291413;28;20050;-71